^^
Station Historical Data
Daily Summary for April 28, 2017 Units:  Both    English   Metric
« Previous Day
Next Day »
Daily Weekly Monthly Yearly Custom
  High: Low: Average:
Temperature: 76.3 °F /  24.6 °C 49.5 °F /  9.7 °C 62.1 °F /  16.7 °C
Dew Point: 48.7 °F /  9.3 °C 44.6 °F /  7 °C 46.7 °F /  8.2 °C
Humidity: 85% 34% 60%
Wind Speed: 10.1mph /  16.3km/h - 1.5mph /  2.4km/h
Wind Gust: 10.1mph /  16.3km/h - -
Wind- - ESE
Pressure: 30.09 in /  1018.8 hPa 29.99 in /  1015.5 hPa -
Precipitation: 0.00 in /  0 mm    
Historical Graphs
 
 
Tabular Data for April 28, 2017
Time Temperature Dew Point Pressure Wind Wind Speed Wind Gust Humidity Rainfall Rate (Hourly) solar Conditions
00:01 54.9 °F /  12.7 °C 46.4 °F /  8 °C 30.06in /  1017.8hPa ESE 2.0mph /  3.2km/h 6.0mph /  9.7km/h 73% 0.00in /  0mm 0.0 W/m2
00:07 54.7 °F /  12.6 °C 46.2 °F /  7.9 °C 30.05in /  1017.5hPa ENE 0.9mph /  1.4km/h 4.0mph /  6.4km/h 73% 0.00in /  0mm 0.0 W/m2
00:13 54.7 °F /  12.6 °C 46.6 °F /  8.1 °C 30.05in /  1017.5hPa ENE 0.9mph /  1.4km/h 3.0mph /  4.8km/h 74% 0.00in /  0mm 0.0 W/m2
00:19 54.3 °F /  12.4 °C 46.2 °F /  7.9 °C 30.05in /  1017.5hPa ENE 0.9mph /  1.4km/h 3.0mph /  4.8km/h 74% 0.00in /  0mm 0.0 W/m2
00:25 54.1 °F /  12.3 °C 46.4 °F /  8 °C 30.05in /  1017.5hPa Calm   3.0mph /  4.8km/h 75% 0.00in /  0mm 0.0 W/m2
00:32 54.0 °F /  12.2 °C 46.2 °F /  7.9 °C 30.05in /  1017.5hPa Calm   1.0mph /  1.6km/h 75% 0.00in /  0mm 0.0 W/m2
00:38 54.0 °F /  12.2 °C 46.2 °F /  7.9 °C 30.05in /  1017.5hPa ESE 0.9mph /  1.4km/h 3.0mph /  4.8km/h 75% 0.00in /  0mm 0.0 W/m2
00:44 54.0 °F /  12.2 °C 46.2 °F /  7.9 °C 30.05in /  1017.5hPa ENE 2.0mph /  3.2km/h 4.0mph /  6.4km/h 75% 0.00in /  0mm 0.0 W/m2
00:50 54.0 °F /  12.2 °C 45.9 °F /  7.7 °C 30.05in /  1017.5hPa Calm   2.0mph /  3.2km/h 74% 0.00in /  0mm 0.0 W/m2
00:56 54.0 °F /  12.2 °C 45.9 °F /  7.7 °C 30.05in /  1017.5hPa Calm   4.0mph /  6.4km/h 74% 0.00in /  0mm 0.0 W/m2
01:02 54.0 °F /  12.2 °C 45.9 °F /  7.7 °C 30.04in /  1017.2hPa Calm   1.0mph /  1.6km/h 74% 0.00in /  0mm 0.0 W/m2
01:08 54.0 °F /  12.2 °C 45.9 °F /  7.7 °C 30.04in /  1017.2hPa Calm   1.0mph /  1.6km/h 74% 0.00in /  0mm 0.0 W/m2
01:14 53.8 °F /  12.1 °C 46.0 °F /  7.8 °C 30.04in /  1017.2hPa East 3.0mph /  4.8km/h 3.0mph /  4.8km/h 75% 0.00in /  0mm 0.0 W/m2
01:20 53.8 °F /  12.1 °C 46.0 °F /  7.8 °C 30.03in /  1016.8hPa Calm   3.0mph /  4.8km/h 75% 0.00in /  0mm 0.0 W/m2
01:26 53.4 °F /  11.9 °C 45.7 °F /  7.6 °C 30.03in /  1016.8hPa Calm   1.0mph /  1.6km/h 75% 0.00in /  0mm 0.0 W/m2
01:32 53.2 °F /  11.8 °C 45.9 °F /  7.7 °C 30.03in /  1016.8hPa Calm   3.0mph /  4.8km/h 76% 0.00in /  0mm 0.0 W/m2
01:38 53.1 °F /  11.7 °C 45.7 °F /  7.6 °C 30.03in /  1016.8hPa Calm   2.0mph /  3.2km/h 76% 0.00in /  0mm 0.0 W/m2
01:44 53.1 °F /  11.7 °C 45.7 °F /  7.6 °C 30.03in /  1016.8hPa Calm     76% 0.00in /  0mm 0.0 W/m2
01:50 52.9 °F /  11.6 °C 45.9 °F /  7.7 °C 30.03in /  1016.8hPa Calm   1.0mph /  1.6km/h 77% 0.00in /  0mm 0.0 W/m2
01:56 52.5 °F /  11.4 °C 45.5 °F /  7.5 °C 30.03in /  1016.8hPa Calm     77% 0.00in /  0mm 0.0 W/m2
02:02 52.3 °F /  11.3 °C 45.7 °F /  7.6 °C 30.03in /  1016.8hPa Calm     78% 0.00in /  0mm 0.0 W/m2
02:08 52.2 °F /  11.2 °C 45.5 °F /  7.5 °C 30.03in /  1016.8hPa Calm   3.0mph /  4.8km/h 78% 0.00in /  0mm 0.0 W/m2
02:14 52.0 °F /  11.1 °C 45.3 °F /  7.4 °C 30.03in /  1016.8hPa Calm   2.0mph /  3.2km/h 78% 0.00in /  0mm 0.0 W/m2
02:20 52.0 °F /  11.1 °C 45.3 °F /  7.4 °C 30.03in /  1016.8hPa Calm   1.0mph /  1.6km/h 78% 0.00in /  0mm 0.0 W/m2
02:26 51.8 °F /  11 °C 45.5 °F /  7.5 °C 30.03in /  1016.8hPa Calm   1.0mph /  1.6km/h 79% 0.00in /  0mm 0.0 W/m2
02:32 51.6 °F /  10.9 °C 45.3 °F /  7.4 °C 30.03in /  1016.8hPa Calm   1.0mph /  1.6km/h 79% 0.00in /  0mm 0.0 W/m2
02:38 51.6 °F /  10.9 °C 45.3 °F /  7.4 °C 30.02in /  1016.5hPa ESE 2.0mph /  3.2km/h 2.0mph /  3.2km/h 79% 0.00in /  0mm 0.0 W/m2
02:44 51.6 °F /  10.9 °C 45.3 °F /  7.4 °C 30.02in /  1016.5hPa Calm   2.0mph /  3.2km/h 79% 0.00in /  0mm 0.0 W/m2
02:50 51.4 °F /  10.8 °C 45.1 °F /  7.3 °C 30.02in /  1016.5hPa Calm     79% 0.00in /  0mm 0.0 W/m2
02:56 51.4 °F /  10.8 °C 45.1 °F /  7.3 °C 30.02in /  1016.5hPa Calm     79% 0.00in /  0mm 0.0 W/m2
03:02 51.3 °F /  10.7 °C 45.0 °F /  7.2 °C 30.02in /  1016.5hPa Calm     79% 0.00in /  0mm 0.0 W/m2
03:08 51.1 °F /  10.6 °C 45.1 °F /  7.3 °C 30.03in /  1016.8hPa Calm     80% 0.00in /  0mm 0.0 W/m2
03:14 51.1 °F /  10.6 °C 45.1 °F /  7.3 °C 30.02in /  1016.5hPa Calm     80% 0.00in /  0mm 0.0 W/m2
03:20 50.7 °F /  10.4 °C 44.8 °F /  7.1 °C 30.02in /  1016.5hPa Calm     80% 0.00in /  0mm 0.0 W/m2
03:26 50.7 °F /  10.4 °C 44.8 °F /  7.1 °C 30.02in /  1016.5hPa Calm     80% 0.00in /  0mm 0.0 W/m2
03:32 50.5 °F /  10.3 °C 44.6 °F /  7 °C 30.02in /  1016.5hPa Calm   2.0mph /  3.2km/h 80% 0.00in /  0mm 0.0 W/m2
03:38 50.5 °F /  10.3 °C 45.0 °F /  7.2 °C 30.03in /  1016.8hPa Calm     81% 0.00in /  0mm 0.0 W/m2
03:44 50.4 °F /  10.2 °C 44.8 °F /  7.1 °C 30.03in /  1016.8hPa ESE 0.9mph /  1.4km/h 1.0mph /  1.6km/h 81% 0.00in /  0mm 0.0 W/m2
03:50 50.4 °F /  10.2 °C 44.8 °F /  7.1 °C 30.03in /  1016.8hPa Calm   2.0mph /  3.2km/h 81% 0.00in /  0mm 0.0 W/m2
03:56 50.4 °F /  10.2 °C 44.8 °F /  7.1 °C 30.03in /  1016.8hPa Calm     81% 0.00in /  0mm 0.0 W/m2
04:02 50.4 °F /  10.2 °C 44.8 °F /  7.1 °C 30.03in /  1016.8hPa Calm   1.0mph /  1.6km/h 81% 0.00in /  0mm 0.0 W/m2
04:08 50.2 °F /  10.1 °C 44.6 °F /  7 °C 30.03in /  1016.8hPa Calm     81% 0.00in /  0mm 0.0 W/m2
04:14 50.2 °F /  10.1 °C 45.0 °F /  7.2 °C 30.03in /  1016.8hPa Calm     82% 0.00in /  0mm 0.0 W/m2
04:20 50.0 °F /  10 °C 44.8 °F /  7.1 °C 30.03in /  1016.8hPa Calm     82% 0.00in /  0mm 0.0 W/m2
04:26 49.8 °F /  9.9 °C 44.6 °F /  7 °C 30.03in /  1016.8hPa Calm   1.0mph /  1.6km/h 82% 0.00in /  0mm 0.0 W/m2
04:32 49.8 °F /  9.9 °C 44.6 °F /  7 °C 30.03in /  1016.8hPa Calm   1.0mph /  1.6km/h 82% 0.00in /  0mm 0.0 W/m2
04:38 49.8 °F /  9.9 °C 44.8 °F /  7.1 °C 30.03in /  1016.8hPa Calm   1.0mph /  1.6km/h 83% 0.00in /  0mm 0.0 W/m2
04:44 49.8 °F /  9.9 °C 44.8 °F /  7.1 °C 30.03in /  1016.8hPa Calm     83% 0.00in /  0mm 0.0 W/m2
04:50 49.8 °F /  9.9 °C 44.8 °F /  7.1 °C 30.03in /  1016.8hPa Calm   4.0mph /  6.4km/h 83% 0.00in /  0mm 0.0 W/m2
04:56 49.8 °F /  9.9 °C 44.8 °F /  7.1 °C 30.03in /  1016.8hPa Calm     83% 0.00in /  0mm 0.0 W/m2
05:02 49.8 °F /  9.9 °C 44.8 °F /  7.1 °C 30.03in /  1016.8hPa Calm     83% 0.00in /  0mm 0.0 W/m2
05:08 49.8 °F /  9.9 °C 44.8 °F /  7.1 °C 30.03in /  1016.8hPa Calm     83% 0.00in /  0mm 0.0 W/m2
05:14 49.8 °F /  9.9 °C 44.8 °F /  7.1 °C 30.04in /  1017.2hPa Calm     83% 0.00in /  0mm 0.0 W/m2
05:20 49.6 °F /  9.8 °C 44.8 °F /  7.1 °C 30.04in /  1017.2hPa Calm     83% 0.00in /  0mm 0.0 W/m2
05:26 49.6 °F /  9.8 °C 44.8 °F /  7.1 °C 30.04in /  1017.2hPa Calm     83% 0.00in /  0mm 0.0 W/m2
05:32 49.6 °F /  9.8 °C 44.8 °F /  7.1 °C 30.04in /  1017.2hPa Calm     83% 0.00in /  0mm 0.0 W/m2
05:38 49.5 °F /  9.7 °C 44.8 °F /  7.1 °C 30.04in /  1017.2hPa Calm   2.0mph /  3.2km/h 84% 0.00in /  0mm 0.0 W/m2
05:44 49.5 °F /  9.7 °C 44.8 °F /  7.1 °C 30.04in /  1017.2hPa Calm   2.0mph /  3.2km/h 84% 0.00in /  0mm 0.0 W/m2
05:50 49.5 °F /  9.7 °C 44.8 °F /  7.1 °C 30.04in /  1017.2hPa Calm     84% 0.00in /  0mm 0.0 W/m2
05:56 49.5 °F /  9.7 °C 44.8 °F /  7.1 °C 30.04in /  1017.2hPa Calm   1.0mph /  1.6km/h 84% 0.00in /  0mm 0.0 W/m2
06:02 49.5 °F /  9.7 °C 44.8 °F /  7.1 °C 30.05in /  1017.5hPa Calm   2.0mph /  3.2km/h 84% 0.00in /  0mm 0.0 W/m2
06:08 49.5 °F /  9.7 °C 44.8 °F /  7.1 °C 30.05in /  1017.5hPa Calm   1.0mph /  1.6km/h 84% 0.00in /  0mm 0.0 W/m2
06:14 49.5 °F /  9.7 °C 44.8 °F /  7.1 °C 30.05in /  1017.5hPa Calm   2.0mph /  3.2km/h 84% 0.00in /  0mm 5.0 W/m2
06:20 49.5 °F /  9.7 °C 45.1 °F /  7.3 °C 30.05in /  1017.5hPa Calm   1.0mph /  1.6km/h 85% 0.00in /  0mm 7.0 W/m2
06:26 49.5 °F /  9.7 °C 45.1 °F /  7.3 °C 30.06in /  1017.8hPa Calm   2.0mph /  3.2km/h 85% 0.00in /  0mm 9.0 W/m2
06:32 49.6 °F /  9.8 °C 45.3 °F /  7.4 °C 30.06in /  1017.8hPa Calm   1.0mph /  1.6km/h 85% 0.00in /  0mm 11.0 W/m2
06:39 49.6 °F /  9.8 °C 45.3 °F /  7.4 °C 30.06in /  1017.8hPa NE 0.9mph /  1.4km/h 2.0mph /  3.2km/h 85% 0.00in /  0mm 12.0 W/m2
06:45 49.8 °F /  9.9 °C 45.1 °F /  7.3 °C 30.07in /  1018.2hPa ENE 0.9mph /  1.4km/h 1.0mph /  1.6km/h 84% 0.00in /  0mm 14.0 W/m2
06:51 49.8 °F /  9.9 °C 45.5 °F /  7.5 °C 30.07in /  1018.2hPa Calm   2.0mph /  3.2km/h 85% 0.00in /  0mm 16.0 W/m2
06:57 50.0 °F /  10 °C 45.7 °F /  7.6 °C 30.07in /  1018.2hPa Calm     85% 0.00in /  0mm 18.0 W/m2
07:03 50.2 °F /  10.1 °C 45.9 °F /  7.7 °C 30.08in /  1018.5hPa Calm     85% 0.00in /  0mm 18.0 W/m2
07:09 50.4 °F /  10.2 °C 46.0 °F /  7.8 °C 30.08in /  1018.5hPa East 0.9mph /  1.4km/h 1.0mph /  1.6km/h 85% 0.00in /  0mm 19.0 W/m2
07:15 50.7 °F /  10.4 °C 46.4 °F /  8 °C 30.08in /  1018.5hPa Calm   3.0mph /  4.8km/h 85% 0.00in /  0mm 21.0 W/m2
07:21 51.4 °F /  10.8 °C 46.8 °F /  8.2 °C 30.08in /  1018.5hPa Calm   3.0mph /  4.8km/h 84% 0.00in /  0mm 21.0 W/m2
07:27 52.3 °F /  11.3 °C 46.9 °F /  8.3 °C 30.08in /  1018.5hPa ENE 2.0mph /  3.2km/h 2.0mph /  3.2km/h 82% 0.00in /  0mm 23.0 W/m2
07:33 53.4 °F /  11.9 °C 47.7 °F /  8.7 °C 30.08in /  1018.5hPa Calm   4.0mph /  6.4km/h 81% 0.00in /  0mm 25.0 W/m2
07:39 54.5 °F /  12.5 °C 47.8 °F /  8.8 °C 30.08in /  1018.5hPa NNE 0.9mph /  1.4km/h 6.0mph /  9.7km/h 78% 0.00in /  0mm 25.0 W/m2
07:45 55.8 °F /  13.2 °C 48.0 °F /  8.9 °C 30.08in /  1018.5hPa Calm   2.0mph /  3.2km/h 75% 0.00in /  0mm 26.0 W/m2
07:51 56.8 °F /  13.8 °C 48.2 °F /  9 °C 30.08in /  1018.5hPa NNW 2.0mph /  3.2km/h 4.0mph /  6.4km/h 73% 0.00in /  0mm 26.0 W/m2
07:58 57.9 °F /  14.4 °C 48.2 °F /  9 °C 30.08in /  1018.5hPa Calm   4.0mph /  6.4km/h 70% 0.00in /  0mm 28.0 W/m2
08:04 58.8 °F /  14.9 °C 48.2 °F /  9 °C 30.08in /  1018.5hPa Calm   4.0mph /  6.4km/h 68% 0.00in /  0mm 28.0 W/m2
08:10 59.9 °F /  15.5 °C 47.7 °F /  8.7 °C 30.08in /  1018.5hPa East 4.0mph /  6.4km/h 7.0mph /  11.3km/h 64% 0.00in /  0mm 30.0 W/m2
08:16 61.0 °F /  16.1 °C 46.9 °F /  8.3 °C 30.08in /  1018.5hPa SE 0.9mph /  1.4km/h 8.0mph /  12.9km/h 60% 0.00in /  0mm 32.0 W/m2
08:22 62.1 °F /  16.7 °C 47.1 °F /  8.4 °C 30.09in /  1018.8hPa ENE 4.9mph /  7.9km/h 8.0mph /  12.9km/h 58% 0.00in /  0mm 65.0 W/m2
08:28 63.1 °F /  17.3 °C 47.1 °F /  8.4 °C 30.09in /  1018.8hPa NE 4.9mph /  7.9km/h 8.0mph /  12.9km/h 56% 0.00in /  0mm 475.0 W/m2
08:34 64.4 °F /  18 °C 46.9 °F /  8.3 °C 30.09in /  1018.8hPa East 4.0mph /  6.4km/h 8.0mph /  12.9km/h 53% 0.00in /  0mm 494.0 W/m2
08:41 65.5 °F /  18.6 °C 47.5 °F /  8.6 °C 30.09in /  1018.8hPa ESE 4.0mph /  6.4km/h 7.0mph /  11.3km/h 52% 0.00in /  0mm 513.0 W/m2
08:47 66.4 °F /  19.1 °C 47.1 °F /  8.4 °C 30.09in /  1018.8hPa East 6.9mph /  11.1km/h 8.0mph /  12.9km/h 50% 0.00in /  0mm 534.0 W/m2
08:53 66.9 °F /  19.4 °C 47.1 °F /  8.4 °C 30.09in /  1018.8hPa East 6.9mph /  11.1km/h 10.0mph /  16.1km/h 49% 0.00in /  0mm 554.0 W/m2
08:59 67.5 °F /  19.7 °C 47.7 °F /  8.7 °C 30.09in /  1018.8hPa NNE 8.1mph /  13km/h 8.1mph /  13km/h 49% 0.00in /  0mm 570.0 W/m2
09:05 68.0 °F /  20 °C 47.7 °F /  8.7 °C 30.09in /  1018.8hPa NNE 6.0mph /  9.7km/h 7.0mph /  11.3km/h 48% 0.00in /  0mm 587.0 W/m2
09:11 68.5 °F /  20.3 °C 47.5 °F /  8.6 °C 30.09in /  1018.8hPa NE 4.0mph /  6.4km/h 9.0mph /  14.5km/h 47% 0.00in /  0mm 603.0 W/m2
09:17 68.9 °F /  20.5 °C 47.3 °F /  8.5 °C 30.09in /  1018.8hPa NE 2.9mph /  4.7km/h 5.0mph /  8km/h 46% 0.00in /  0mm 619.0 W/m2
09:23 69.4 °F /  20.8 °C 47.8 °F /  8.8 °C 30.09in /  1018.8hPa Calm   2.0mph /  3.2km/h 46% 0.00in /  0mm 635.0 W/m2
09:29 70.0 °F /  21.1 °C 47.7 °F /  8.7 °C 30.09in /  1018.8hPa North 6.0mph /  9.7km/h 10.0mph /  16.1km/h 45% 0.00in /  0mm 647.0 W/m2
09:35 69.8 °F /  21 °C 46.9 °F /  8.3 °C 30.09in /  1018.8hPa NE 10.1mph /  16.3km/h 10.1mph /  16.3km/h 44% 0.00in /  0mm 663.0 W/m2
09:41 70.0 °F /  21.1 °C 47.7 °F /  8.7 °C 30.09in /  1018.8hPa NE 4.0mph /  6.4km/h 10.0mph /  16.1km/h 45% 0.00in /  0mm 677.0 W/m2
09:47 70.0 °F /  21.1 °C 47.7 °F /  8.7 °C 30.08in /  1018.5hPa North 4.9mph /  7.9km/h 10.0mph /  16.1km/h 45% 0.00in /  0mm 691.0 W/m2
09:53 70.2 °F /  21.2 °C 47.3 °F /  8.5 °C 30.08in /  1018.5hPa NNW 8.9mph /  14.3km/h 10.0mph /  16.1km/h 44% 0.00in /  0mm 703.0 W/m2
09:59 70.5 °F /  21.4 °C 47.5 °F /  8.6 °C 30.08in /  1018.5hPa NNW 4.9mph /  7.9km/h 9.0mph /  14.5km/h 44% 0.00in /  0mm 719.0 W/m2
10:06 70.9 °F /  21.6 °C 48.6 °F /  9.2 °C 30.08in /  1018.5hPa North 4.0mph /  6.4km/h 10.0mph /  16.1km/h 45% 0.00in /  0mm 728.0 W/m2
10:12 71.4 °F /  21.9 °C 47.1 °F /  8.4 °C 30.08in /  1018.5hPa NNE 2.9mph /  4.7km/h 8.0mph /  12.9km/h 42% 0.00in /  0mm 763.0 W/m2
10:18 71.4 °F /  21.9 °C 46.6 °F /  8.1 °C 30.08in /  1018.5hPa Calm   8.0mph /  12.9km/h 41% 0.00in /  0mm 782.0 W/m2
10:24 71.2 °F /  21.8 °C 46.9 °F /  8.3 °C 30.08in /  1018.5hPa NE 4.0mph /  6.4km/h 7.0mph /  11.3km/h 42% 0.00in /  0mm 814.0 W/m2
10:30 71.4 °F /  21.9 °C 47.8 °F /  8.8 °C 30.08in /  1018.5hPa NNW 4.9mph /  7.9km/h 6.0mph /  9.7km/h 43% 0.00in /  0mm 828.0 W/m2
10:36 71.6 °F /  22 °C 47.8 °F /  8.8 °C 30.07in /  1018.2hPa East 4.9mph /  7.9km/h 5.0mph /  8km/h 43% 0.00in /  0mm 800.0 W/m2
10:42 72.1 °F /  22.3 °C 47.1 °F /  8.4 °C 30.07in /  1018.2hPa North 4.0mph /  6.4km/h 6.0mph /  9.7km/h 41% 0.00in /  0mm 823.0 W/m2
10:48 72.5 °F /  22.5 °C 46.2 °F /  7.9 °C 30.07in /  1018.2hPa NE 4.0mph /  6.4km/h 7.0mph /  11.3km/h 39% 0.00in /  0mm 297.0 W/m2
10:55 72.3 °F /  22.4 °C 46.6 °F /  8.1 °C 30.06in /  1017.8hPa North 2.0mph /  3.2km/h 9.0mph /  14.5km/h 40% 0.00in /  0mm 893.0 W/m2
11:01 72.7 °F /  22.6 °C 47.7 °F /  8.7 °C 30.06in /  1017.8hPa Calm   6.0mph /  9.7km/h 41% 0.00in /  0mm 877.0 W/m2
11:07 72.7 °F /  22.6 °C 46.9 °F /  8.3 °C 30.06in /  1017.8hPa NE 2.0mph /  3.2km/h 9.0mph /  14.5km/h 40% 0.00in /  0mm 162.0 W/m2
11:13 72.3 °F /  22.4 °C 46.6 °F /  8.1 °C 30.06in /  1017.8hPa Calm   9.0mph /  14.5km/h 40% 0.00in /  0mm 214.0 W/m2
11:19 72.5 °F /  22.5 °C 47.5 °F /  8.6 °C 30.05in /  1017.5hPa NNE 2.0mph /  3.2km/h 5.0mph /  8km/h 41% 0.00in /  0mm 896.0 W/m2
11:25 72.3 °F /  22.4 °C 46.6 °F /  8.1 °C 30.05in /  1017.5hPa North 2.9mph /  4.7km/h 8.0mph /  12.9km/h 40% 0.00in /  0mm 264.0 W/m2
11:31 72.0 °F /  22.2 °C 46.9 °F /  8.3 °C 30.05in /  1017.5hPa NW 2.0mph /  3.2km/h 6.0mph /  9.7km/h 41% 0.00in /  0mm 721.0 W/m2
11:37 72.7 °F /  22.6 °C 47.7 °F /  8.7 °C 30.05in /  1017.5hPa Calm   7.0mph /  11.3km/h 41% 0.00in /  0mm 1013.0 W/m2
11:43 73.0 °F /  22.8 °C 48.0 °F /  8.9 °C 30.04in /  1017.2hPa ENE 0.9mph /  1.4km/h 4.0mph /  6.4km/h 41% 0.00in /  0mm 202.0 W/m2
11:49 72.3 °F /  22.4 °C 48.0 °F /  8.9 °C 30.05in /  1017.5hPa NE 4.0mph /  6.4km/h 6.0mph /  9.7km/h 42% 0.00in /  0mm 250.0 W/m2
11:56 71.8 °F /  22.1 °C 46.8 °F /  8.2 °C 30.04in /  1017.2hPa ENE 2.0mph /  3.2km/h 5.0mph /  8km/h 41% 0.00in /  0mm 248.0 W/m2
12:08 71.4 °F /  21.9 °C 47.8 °F /  8.8 °C 30.04in /  1017.2hPa North 2.9mph /  4.7km/h 7.0mph /  11.3km/h 43% 0.00in /  0mm 311.0 W/m2
12:14 71.6 °F /  22 °C 47.3 °F /  8.5 °C 30.03in /  1016.8hPa NNE 2.9mph /  4.7km/h 8.0mph /  12.9km/h 42% 0.00in /  0mm 278.0 W/m2
12:20 71.4 °F /  21.9 °C 47.1 °F /  8.4 °C 30.03in /  1016.8hPa NE 0.9mph /  1.4km/h 5.0mph /  8km/h 42% 0.00in /  0mm 264.0 W/m2
12:26 71.4 °F /  21.9 °C 47.8 °F /  8.8 °C 30.03in /  1016.8hPa East 6.9mph /  11.1km/h 7.0mph /  11.3km/h 43% 0.00in /  0mm 313.0 W/m2
12:32 71.6 °F /  22 °C 47.3 °F /  8.5 °C 30.03in /  1016.8hPa Calm   5.0mph /  8km/h 42% 0.00in /  0mm 283.0 W/m2
12:39 72.0 °F /  22.2 °C 46.9 °F /  8.3 °C 30.03in /  1016.8hPa WNW 2.0mph /  3.2km/h 4.0mph /  6.4km/h 41% 0.00in /  0mm 325.0 W/m2
12:45 72.5 °F /  22.5 °C 46.2 °F /  7.9 °C 30.02in /  1016.5hPa NNE 2.0mph /  3.2km/h 6.0mph /  9.7km/h 39% 0.00in /  0mm 1058.0 W/m2
12:51 73.8 °F /  23.2 °C 47.3 °F /  8.5 °C 30.02in /  1016.5hPa NNW 8.1mph /  13km/h 9.0mph /  14.5km/h 39% 0.00in /  0mm 1018.0 W/m2
12:57 74.5 °F /  23.6 °C 46.6 °F /  8.1 °C 30.02in /  1016.5hPa Calm   5.0mph /  8km/h 37% 0.00in /  0mm 306.0 W/m2
13:03 74.3 °F /  23.5 °C 47.1 °F /  8.4 °C 30.01in /  1016.1hPa NW 2.0mph /  3.2km/h 8.0mph /  12.9km/h 38% 0.00in /  0mm 921.0 W/m2
13:09 74.8 °F /  23.8 °C 47.5 °F /  8.6 °C 30.01in /  1016.1hPa NW 2.0mph /  3.2km/h 4.0mph /  6.4km/h 38% 0.00in /  0mm 967.0 W/m2
13:15 75.6 °F /  24.2 °C 47.5 °F /  8.6 °C 30.01in /  1016.1hPa SSE 2.9mph /  4.7km/h 6.0mph /  9.7km/h 37% 0.00in /  0mm 953.0 W/m2
13:21 75.9 °F /  24.4 °C 47.1 °F /  8.4 °C 30.01in /  1016.1hPa Calm   10.0mph /  16.1km/h 36% 0.00in /  0mm 907.0 W/m2
13:27 76.3 °F /  24.6 °C 45.9 °F /  7.7 °C 30.01in /  1016.1hPa NNE 2.9mph /  4.7km/h 7.0mph /  11.3km/h 34% 0.00in /  0mm 230.0 W/m2
13:33 75.4 °F /  24.1 °C 46.6 °F /  8.1 °C 30.01in /  1016.1hPa NE 9.0mph /  14.5km/h 9.0mph /  14.5km/h 36% 0.00in /  0mm 253.0 W/m2
13:39 74.5 °F /  23.6 °C 46.6 °F /  8.1 °C 30.00in /  1015.8hPa ENE 2.0mph /  3.2km/h 3.0mph /  4.8km/h 37% 0.00in /  0mm 264.0 W/m2
13:45 74.5 °F /  23.6 °C 47.1 °F /  8.4 °C 30.00in /  1015.8hPa NNW 0.9mph /  1.4km/h 5.0mph /  8km/h 38% 0.00in /  0mm 896.0 W/m2
13:52 74.8 °F /  23.8 °C 46.0 °F /  7.8 °C 30.00in /  1015.8hPa NNE 6.9mph /  11.1km/h 7.0mph /  11.3km/h 36% 0.00in /  0mm 861.0 W/m2
13:58 75.4 °F /  24.1 °C 46.6 °F /  8.1 °C 30.00in /  1015.8hPa NNE 0.9mph /  1.4km/h 5.0mph /  8km/h 36% 0.00in /  0mm 234.0 W/m2
14:04 75.4 °F /  24.1 °C 45.9 °F /  7.7 °C 30.00in /  1015.8hPa NNE 2.9mph /  4.7km/h 6.0mph /  9.7km/h 35% 0.00in /  0mm 232.0 W/m2
14:10 74.7 °F /  23.7 °C 45.9 °F /  7.7 °C 30.00in /  1015.8hPa East 2.0mph /  3.2km/h 6.0mph /  9.7km/h 36% 0.00in /  0mm 223.0 W/m2
14:16 73.9 °F /  23.3 °C 46.0 °F /  7.8 °C 30.00in /  1015.8hPa NNE 4.0mph /  6.4km/h 7.0mph /  11.3km/h 37% 0.00in /  0mm 214.0 W/m2
14:22 73.9 °F /  23.3 °C 46.0 °F /  7.8 °C 30.00in /  1015.8hPa NE 2.0mph /  3.2km/h 8.0mph /  12.9km/h 37% 0.00in /  0mm 731.0 W/m2
14:28 74.7 °F /  23.7 °C 46.6 °F /  8.1 °C 30.00in /  1015.8hPa NNE 4.0mph /  6.4km/h 6.0mph /  9.7km/h 37% 0.00in /  0mm 158.0 W/m2
14:34 74.7 °F /  23.7 °C 45.9 °F /  7.7 °C 30.00in /  1015.8hPa North 0.9mph /  1.4km/h 5.0mph /  8km/h 36% 0.00in /  0mm 172.0 W/m2
14:41 73.9 °F /  23.3 °C 46.8 °F /  8.2 °C 29.99in /  1015.5hPa West 0.9mph /  1.4km/h 1.0mph /  1.6km/h 38% 0.00in /  0mm 160.0 W/m2
14:53 73.6 °F /  23.1 °C 46.4 °F /  8 °C 30.00in /  1015.8hPa NE 4.0mph /  6.4km/h 10.0mph /  16.1km/h 38% 0.00in /  0mm 701.0 W/m2
14:59 73.4 °F /  23 °C 45.5 °F /  7.5 °C 30.00in /  1015.8hPa NNE 2.0mph /  3.2km/h 7.0mph /  11.3km/h 37% 0.00in /  0mm 248.0 W/m2
15:05 73.8 °F /  23.2 °C 47.3 °F /  8.5 °C 29.99in /  1015.5hPa NNW 0.9mph /  1.4km/h 2.0mph /  3.2km/h 39% 0.00in /  0mm 649.0 W/m2
15:11 74.8 °F /  23.8 °C 46.8 °F /  8.2 °C 29.99in /  1015.5hPa NNE 4.9mph /  7.9km/h 9.0mph /  14.5km/h 37% 0.00in /  0mm 596.0 W/m2
15:17 75.0 °F /  23.9 °C 46.2 °F /  7.9 °C 29.99in /  1015.5hPa NNE 4.9mph /  7.9km/h 8.0mph /  12.9km/h 36% 0.00in /  0mm 515.0 W/m2
15:23 74.5 °F /  23.6 °C 46.6 °F /  8.1 °C 30.00in /  1015.8hPa North 4.0mph /  6.4km/h 9.0mph /  14.5km/h 37% 0.00in /  0mm 95.0 W/m2
15:29 73.2 °F /  22.9 °C 46.0 °F /  7.8 °C 30.00in /  1015.8hPa ENE 2.0mph /  3.2km/h 6.0mph /  9.7km/h 38% 0.00in /  0mm 98.0 W/m2
15:36 72.7 °F /  22.6 °C 45.7 °F /  7.6 °C 30.00in /  1015.8hPa ENE 4.0mph /  6.4km/h 6.0mph /  9.7km/h 38% 0.00in /  0mm 105.0 W/m2
15:42 72.1 °F /  22.3 °C 45.9 °F /  7.7 °C 30.00in /  1015.8hPa Calm   4.0mph /  6.4km/h 39% 0.00in /  0mm 109.0 W/m2
15:48 71.8 °F /  22.1 °C 45.5 °F /  7.5 °C 30.00in /  1015.8hPa NE 0.9mph /  1.4km/h 3.0mph /  4.8km/h 39% 0.00in /  0mm 220.0 W/m2
15:54 72.0 °F /  22.2 °C 45.7 °F /  7.6 °C 30.00in /  1015.8hPa East 0.9mph /  1.4km/h 7.0mph /  11.3km/h 39% 0.00in /  0mm 81.0 W/m2
16:00 72.0 °F /  22.2 °C 45.7 °F /  7.6 °C 30.01in /  1016.1hPa NNE 4.0mph /  6.4km/h 6.0mph /  9.7km/h 39% 0.00in /  0mm 62.0 W/m2
16:07 71.8 °F /  22.1 °C 46.2 °F /  7.9 °C 30.01in /  1016.1hPa NNE 2.0mph /  3.2km/h 5.0mph /  8km/h 40% 0.00in /  0mm 53.0 W/m2
16:13 71.2 °F /  21.8 °C 45.7 °F /  7.6 °C 30.01in /  1016.1hPa NW 2.0mph /  3.2km/h 4.0mph /  6.4km/h 40% 0.00in /  0mm 44.0 W/m2
16:19 70.9 °F /  21.6 °C 46.6 °F /  8.1 °C 30.01in /  1016.1hPa NNE 0.9mph /  1.4km/h 2.0mph /  3.2km/h 42% 0.00in /  0mm 46.0 W/m2
16:25 70.5 °F /  21.4 °C 45.7 °F /  7.6 °C 30.01in /  1016.1hPa NNE 2.0mph /  3.2km/h 5.0mph /  8km/h 41% 0.00in /  0mm 51.0 W/m2
16:31 70.2 °F /  21.2 °C 46.0 °F /  7.8 °C 30.01in /  1016.1hPa Calm   2.0mph /  3.2km/h 42% 0.00in /  0mm 60.0 W/m2
16:37 70.0 °F /  21.1 °C 45.9 °F /  7.7 °C 30.01in /  1016.1hPa Calm   2.0mph /  3.2km/h 42% 0.00in /  0mm 49.0 W/m2
16:44 69.8 °F /  21 °C 45.7 °F /  7.6 °C 30.02in /  1016.5hPa ENE 2.0mph /  3.2km/h 3.0mph /  4.8km/h 42% 0.00in /  0mm 40.0 W/m2
16:50 69.6 °F /  20.9 °C 46.2 °F /  7.9 °C 30.02in /  1016.5hPa NE 2.9mph /  4.7km/h 4.0mph /  6.4km/h 43% 0.00in /  0mm 37.0 W/m2
16:56 69.6 °F /  20.9 °C 46.2 °F /  7.9 °C 30.02in /  1016.5hPa Calm   3.0mph /  4.8km/h 43% 0.00in /  0mm 30.0 W/m2
17:02 69.4 °F /  20.8 °C 46.6 °F /  8.1 °C 30.02in /  1016.5hPa Calm   2.0mph /  3.2km/h 44% 0.00in /  0mm 26.0 W/m2
17:08 69.3 °F /  20.7 °C 46.9 °F /  8.3 °C 30.02in /  1016.5hPa Calm   2.0mph /  3.2km/h 45% 0.00in /  0mm 18.0 W/m2
17:14 69.1 °F /  20.6 °C 46.8 °F /  8.2 °C 30.03in /  1016.8hPa Calm   2.0mph /  3.2km/h 45% 0.00in /  0mm 11.0 W/m2
17:20 68.7 °F /  20.4 °C 47.7 °F /  8.7 °C 30.03in /  1016.8hPa Calm   1.0mph /  1.6km/h 47% 0.00in /  0mm 5.0 W/m2
17:26 68.4 °F /  20.2 °C 47.8 °F /  8.8 °C 30.03in /  1016.8hPa Calm   1.0mph /  1.6km/h 48% 0.00in /  0mm 0.0 W/m2
17:33 67.8 °F /  19.9 °C 48.0 °F /  8.9 °C 30.03in /  1016.8hPa Calm   1.0mph /  1.6km/h 49% 0.00in /  0mm 0.0 W/m2
17:39 67.5 °F /  19.7 °C 48.7 °F /  9.3 °C 30.03in /  1016.8hPa Calm   1.0mph /  1.6km/h 51% 0.00in /  0mm 0.0 W/m2
17:45 66.9 °F /  19.4 °C 48.2 °F /  9 °C 30.03in /  1016.8hPa East 0.9mph /  1.4km/h 1.0mph /  1.6km/h 51% 0.00in /  0mm 0.0 W/m2
17:51 66.6 °F /  19.2 °C 48.4 °F /  9.1 °C 30.04in /  1017.2hPa Calm   1.0mph /  1.6km/h 52% 0.00in /  0mm 0.0 W/m2
17:57 66.4 °F /  19.1 °C 48.7 °F /  9.3 °C 30.04in /  1017.2hPa Calm     53% 0.00in /  0mm 0.0 W/m2
18:03 65.8 °F /  18.8 °C 48.2 °F /  9 °C 30.04in /  1017.2hPa Calm   1.0mph /  1.6km/h 53% 0.00in /  0mm 0.0 W/m2
18:09 65.5 °F /  18.6 °C 48.4 °F /  9.1 °C 30.04in /  1017.2hPa Calm   1.0mph /  1.6km/h 54% 0.00in /  0mm 0.0 W/m2
18:15 65.1 °F /  18.4 °C 48.0 °F /  8.9 °C 30.04in /  1017.2hPa Calm   1.0mph /  1.6km/h 54% 0.00in /  0mm 0.0 W/m2
18:22 64.8 °F /  18.2 °C 47.7 °F /  8.7 °C 30.04in /  1017.2hPa Calm   1.0mph /  1.6km/h 54% 0.00in /  0mm 0.0 W/m2
18:28 64.6 °F /  18.1 °C 48.0 °F /  8.9 °C 30.04in /  1017.2hPa East 2.0mph /  3.2km/h 2.0mph /  3.2km/h 55% 0.00in /  0mm 0.0 W/m2
18:34 64.2 °F /  17.9 °C 47.7 °F /  8.7 °C 30.04in /  1017.2hPa ENE 0.9mph /  1.4km/h 2.0mph /  3.2km/h 55% 0.00in /  0mm 0.0 W/m2
18:40 64.0 °F /  17.8 °C 48.0 °F /  8.9 °C 30.04in /  1017.2hPa ESE 2.0mph /  3.2km/h 3.0mph /  4.8km/h 56% 0.00in /  0mm 0.0 W/m2
18:46 64.0 °F /  17.8 °C 48.0 °F /  8.9 °C 30.04in /  1017.2hPa ENE 0.9mph /  1.4km/h 3.0mph /  4.8km/h 56% 0.00in /  0mm 0.0 W/m2
18:52 63.9 °F /  17.7 °C 47.8 °F /  8.8 °C 30.05in /  1017.5hPa NE 2.0mph /  3.2km/h 2.0mph /  3.2km/h 56% 0.00in /  0mm 0.0 W/m2
18:58 63.9 °F /  17.7 °C 48.4 °F /  9.1 °C 30.05in /  1017.5hPa Calm   1.0mph /  1.6km/h 57% 0.00in /  0mm 0.0 W/m2
19:04 63.9 °F /  17.7 °C 48.4 °F /  9.1 °C 30.06in /  1017.8hPa Calm   2.0mph /  3.2km/h 57% 0.00in /  0mm 0.0 W/m2
19:11 63.9 °F /  17.7 °C 48.4 °F /  9.1 °C 30.06in /  1017.8hPa Calm   2.0mph /  3.2km/h 57% 0.00in /  0mm 0.0 W/m2
19:17 63.9 °F /  17.7 °C 48.4 °F /  9.1 °C 30.06in /  1017.8hPa Calm   1.0mph /  1.6km/h 57% 0.00in /  0mm 0.0 W/m2
19:23 63.7 °F /  17.6 °C 48.2 °F /  9 °C 30.06in /  1017.8hPa Calm   4.0mph /  6.4km/h 57% 0.00in /  0mm 0.0 W/m2
19:29 63.9 °F /  17.7 °C 48.4 °F /  9.1 °C 30.06in /  1017.8hPa SE 2.0mph /  3.2km/h 3.0mph /  4.8km/h 57% 0.00in /  0mm 0.0 W/m2
19:35 63.9 °F /  17.7 °C 47.8 °F /  8.8 °C 30.07in /  1018.2hPa South 2.0mph /  3.2km/h 3.0mph /  4.8km/h 56% 0.00in /  0mm 0.0 W/m2
19:41 64.0 °F /  17.8 °C 48.0 °F /  8.9 °C 30.07in /  1018.2hPa SE 4.9mph /  7.9km/h 7.0mph /  11.3km/h 56% 0.00in /  0mm 0.0 W/m2
19:47 64.2 °F /  17.9 °C 48.2 °F /  9 °C 30.07in /  1018.2hPa East 2.9mph /  4.7km/h 6.0mph /  9.7km/h 56% 0.00in /  0mm 0.0 W/m2
19:54 64.2 °F /  17.9 °C 47.7 °F /  8.7 °C 30.07in /  1018.2hPa East 4.0mph /  6.4km/h 4.0mph /  6.4km/h 55% 0.00in /  0mm 0.0 W/m2
20:00 64.2 °F /  17.9 °C 47.7 °F /  8.7 °C 30.08in /  1018.5hPa East 2.9mph /  4.7km/h 6.0mph /  9.7km/h 55% 0.00in /  0mm 0.0 W/m2
20:06 64.2 °F /  17.9 °C 47.7 °F /  8.7 °C 30.08in /  1018.5hPa ENE 2.9mph /  4.7km/h 4.0mph /  6.4km/h 55% 0.00in /  0mm 0.0 W/m2
20:12 64.2 °F /  17.9 °C 47.7 °F /  8.7 °C 30.08in /  1018.5hPa East 2.9mph /  4.7km/h 7.0mph /  11.3km/h 55% 0.00in /  0mm 0.0 W/m2
20:14 64.2 °F /  17.9 °C 47.7 °F /  8.7 °C 30.08in /  1018.5hPa East 4.9mph /  7.9km/h 5.0mph /  8km/h 55% 0.00in /  0mm 0.0 W/m2
20:20 64.2 °F /  17.9 °C 47.7 °F /  8.7 °C 30.08in /  1018.5hPa Calm   6.0mph /  9.7km/h 55% 0.00in /  0mm 0.0 W/m2
20:26 64.0 °F /  17.8 °C 48.0 °F /  8.9 °C 30.08in /  1018.5hPa Calm   6.0mph /  9.7km/h 56% 0.00in /  0mm 0.0 W/m2
20:32 63.9 °F /  17.7 °C 48.4 °F /  9.1 °C 30.08in /  1018.5hPa Calm   6.0mph /  9.7km/h 57% 0.00in /  0mm 0.0 W/m2
20:39 63.7 °F /  17.6 °C 48.2 °F /  9 °C 30.08in /  1018.5hPa East 2.9mph /  4.7km/h 5.0mph /  8km/h 57% 0.00in /  0mm 0.0 W/m2
20:45 63.5 °F /  17.5 °C 48.0 °F /  8.9 °C 30.08in /  1018.5hPa SE 2.0mph /  3.2km/h 4.0mph /  6.4km/h 57% 0.00in /  0mm 0.0 W/m2
20:51 63.3 °F /  17.4 °C 47.8 °F /  8.8 °C 30.08in /  1018.5hPa East 0.9mph /  1.4km/h 3.0mph /  4.8km/h 57% 0.00in /  0mm 0.0 W/m2
20:57 63.1 °F /  17.3 °C 48.2 °F /  9 °C 30.09in /  1018.8hPa ESE 4.0mph /  6.4km/h 5.0mph /  8km/h 58% 0.00in /  0mm 0.0 W/m2
21:03 63.0 °F /  17.2 °C 48.0 °F /  8.9 °C 30.09in /  1018.8hPa ESE 0.9mph /  1.4km/h 4.0mph /  6.4km/h 58% 0.00in /  0mm 0.0 W/m2
21:09 62.8 °F /  17.1 °C 47.8 °F /  8.8 °C 30.09in /  1018.8hPa ESE 4.0mph /  6.4km/h 9.0mph /  14.5km/h 58% 0.00in /  0mm 0.0 W/m2
21:15 62.4 °F /  16.9 °C 47.5 °F /  8.6 °C 30.09in /  1018.8hPa Calm   6.0mph /  9.7km/h 58% 0.00in /  0mm 0.0 W/m2
21:22 62.2 °F /  16.8 °C 47.7 °F /  8.7 °C 30.09in /  1018.8hPa ESE 2.9mph /  4.7km/h 5.0mph /  8km/h 59% 0.00in /  0mm 0.0 W/m2
21:28 62.1 °F /  16.7 °C 47.5 °F /  8.6 °C 30.09in /  1018.8hPa Calm   7.0mph /  11.3km/h 59% 0.00in /  0mm 0.0 W/m2
21:34 61.9 °F /  16.6 °C 47.8 °F /  8.8 °C 30.09in /  1018.8hPa SE 2.0mph /  3.2km/h 4.0mph /  6.4km/h 60% 0.00in /  0mm 0.0 W/m2
21:40 61.7 °F /  16.5 °C 48.2 °F /  9 °C 30.09in /  1018.8hPa ESE 2.0mph /  3.2km/h 4.0mph /  6.4km/h 61% 0.00in /  0mm 0.0 W/m2
21:46 61.3 °F /  16.3 °C 47.8 °F /  8.8 °C 30.09in /  1018.8hPa Calm   6.0mph /  9.7km/h 61% 0.00in /  0mm 0.0 W/m2
21:52 61.2 °F /  16.2 °C 48.0 °F /  8.9 °C 30.09in /  1018.8hPa Calm   5.0mph /  8km/h 62% 0.00in /  0mm 0.0 W/m2
21:58 61.0 °F /  16.1 °C 48.4 °F /  9.1 °C 30.09in /  1018.8hPa ESE 4.0mph /  6.4km/h 5.0mph /  8km/h 63% 0.00in /  0mm 0.0 W/m2
22:04 60.6 °F /  15.9 °C 48.0 °F /  8.9 °C 30.09in /  1018.8hPa ESE 0.9mph /  1.4km/h 6.0mph /  9.7km/h 63% 0.00in /  0mm 0.0 W/m2
22:10 60.4 °F /  15.8 °C 47.8 °F /  8.8 °C 30.09in /  1018.8hPa NNE 2.0mph /  3.2km/h 2.0mph /  3.2km/h 63% 0.00in /  0mm 0.0 W/m2
22:17 60.3 °F /  15.7 °C 48.0 °F /  8.9 °C 30.09in /  1018.8hPa Calm   3.0mph /  4.8km/h 64% 0.00in /  0mm 0.0 W/m2
22:23 59.9 °F /  15.5 °C 48.0 °F /  8.9 °C 30.09in /  1018.8hPa Calm   2.0mph /  3.2km/h 65% 0.00in /  0mm 0.0 W/m2
22:29 59.7 °F /  15.4 °C 48.0 °F /  8.9 °C 30.09in /  1018.8hPa Calm   3.0mph /  4.8km/h 65% 0.00in /  0mm 0.0 W/m2
22:35 59.5 °F /  15.3 °C 48.2 °F /  9 °C 30.09in /  1018.8hPa Calm   4.0mph /  6.4km/h 66% 0.00in /  0mm 0.0 W/m2
22:41 59.2 °F /  15.1 °C 47.8 °F /  8.8 °C 30.09in /  1018.8hPa Calm   2.0mph /  3.2km/h 66% 0.00in /  0mm 0.0 W/m2
22:47 59.0 °F /  15 °C 48.0 °F /  8.9 °C 30.09in /  1018.8hPa Calm   2.0mph /  3.2km/h 67% 0.00in /  0mm 0.0 W/m2
22:53 58.6 °F /  14.8 °C 48.2 °F /  9 °C 30.09in /  1018.8hPa Calm   1.0mph /  1.6km/h 68% 0.00in /  0mm 0.0 W/m2
23:00 58.5 °F /  14.7 °C 48.4 °F /  9.1 °C 30.09in /  1018.8hPa ENE 2.0mph /  3.2km/h 2.0mph /  3.2km/h 69% 0.00in /  0mm 0.0 W/m2
23:06 58.3 °F /  14.6 °C 48.2 °F /  9 °C 30.09in /  1018.8hPa NE 0.9mph /  1.4km/h 1.0mph /  1.6km/h 69% 0.00in /  0mm 0.0 W/m2
23:12 57.9 °F /  14.4 °C 48.2 °F /  9 °C 30.09in /  1018.8hPa East 0.9mph /  1.4km/h 4.0mph /  6.4km/h 70% 0.00in /  0mm 0.0 W/m2
23:18 57.9 °F /  14.4 °C 48.2 °F /  9 °C 30.09in /  1018.8hPa Calm   4.0mph /  6.4km/h 70% 0.00in /  0mm 0.0 W/m2
23:24 57.7 °F /  14.3 °C 48.0 °F /  8.9 °C 30.09in /  1018.8hPa ENE 2.0mph /  3.2km/h 2.0mph /  3.2km/h 70% 0.00in /  0mm 0.0 W/m2
23:30 57.6 °F /  14.2 °C 48.2 °F /  9 °C 30.09in /  1018.8hPa ESE 0.9mph /  1.4km/h 2.0mph /  3.2km/h 71% 0.00in /  0mm 0.0 W/m2
23:36 57.4 °F /  14.1 °C 48.0 °F /  8.9 °C 30.09in /  1018.8hPa Calm   2.0mph /  3.2km/h 71% 0.00in /  0mm 0.0 W/m2
23:42 57.2 °F /  14 °C 48.2 °F /  9 °C 30.09in /  1018.8hPa Calm   3.0mph /  4.8km/h 72% 0.00in /  0mm 0.0 W/m2
23:48 57.0 °F /  13.9 °C 48.0 °F /  8.9 °C 30.09in /  1018.8hPa ENE 2.0mph /  3.2km/h 2.0mph /  3.2km/h 72% 0.00in /  0mm 0.0 W/m2
23:54 56.7 °F /  13.7 °C 48.0 °F /  8.9 °C 30.09in /  1018.8hPa East 0.9mph /  1.4km/h 3.0mph /  4.8km/h 73% 0.00in /  0mm 0.0 W/m2
Olympia, Windhoek, Namibia
Compliments of Weather Underground - 3 mb